Time;durP1;ratioP1;P1;durP2;ratioP2;P2;SDS_P1;SDS_P2;PMS_P1;PMS_P2;Temp;Humidity;BMP_temperature;BMP_pressure;BME280_temperature;BME280_humidity;BME280_pressure;Samples;Min_cycle;Max_cycle;Signal;HPM_P1;HPM_P2
2022/11/18 00:00:28;;;;;;;0.20;0.20;;;9.40;99.90;10.10;99208.00;;;;5101370;27;20178;-77
2022/11/18 00:04:24;;;;;;;0.20;0.20;;;9.50;99.90;9.90;99204.00;;;;5117984;27;20190;-77
2022/11/18 00:07:43;;;;;;;0.30;0.30;;;9.50;99.90;9.50;99221.00;;;;5053190;28;20288;-77
2022/11/18 00:10:40;;;;;;;0.20;0.20;;;9.40;99.90;9.60;99215.00;;;;5032684;28;20556;-77
2022/11/18 00:16:26;;;;;;;0.20;0.20;;;9.40;99.90;9.50;99093.00;;;;5037064;28;20240;-77
2022/11/18 00:19:00;;;;;;;0.20;0.20;;;9.30;99.90;9.80;99183.00;;;;5071634;28;20852;-77
2022/11/18 00:21:47;;;;;;;0.20;0.20;;;9.30;99.90;9.80;99241.00;;;;5059463;28;20658;-77
2022/11/18 00:24:37;;;;;;;0.40;0.40;;;9.40;99.90;9.70;99241.00;;;;5070747;28;20191;-77
2022/11/18 00:27:30;;;;;;;0.33;0.33;;;9.40;99.90;9.50;99238.00;;;;5055842;28;20191;-78
2022/11/18 00:30:11;;;;;;;0.20;0.20;;;9.40;99.90;9.70;99237.00;;;;5057503;28;20203;-78
2022/11/18 00:33:06;;;;;;;0.20;0.20;;;9.40;99.90;9.50;99251.00;;;;5050401;28;20217;-78
2022/11/18 00:35:53;;;;;;;0.40;0.40;;;9.40;99.90;9.80;99221.00;;;;4999545;28;20210;-79
2022/11/18 00:38:21;;;;;;;0.20;0.20;;;9.50;99.90;9.90;99270.00;;;;4997366;28;20196;-77
2022/11/18 00:41:11;;;;;;;0.23;0.23;;;9.40;99.90;9.80;99257.00;;;;5113962;27;20594;-78
2022/11/18 00:43:49;;;;;;;0.23;0.23;;;9.40;99.90;9.70;99264.00;;;;5117426;27;20197;-78
2022/11/18 00:46:58;;;;;;;0.20;0.20;;;9.40;99.90;9.80;99225.00;;;;5117344;27;20187;-77
2022/11/18 00:49:30;;;;;;;1.07;1.07;;;9.40;99.90;9.80;99247.00;;;;5027004;28;20190;-78
2022/11/18 00:52:15;;;;;;;0.20;0.20;;;9.40;99.90;9.80;99255.00;;;;5105951;27;20330;-78
2022/11/18 00:54:50;;;;;;;0.60;0.60;;;9.40;99.90;9.60;99198.00;;;;5108937;28;20206;-78
2022/11/18 00:57:39;;;;;;;0.30;0.30;;;9.40;99.90;9.70;99273.00;;;;5116512;27;20188;-77
2022/11/18 01:00:27;;;;;;;0.40;0.40;;;9.40;99.90;9.60;99253.00;;;;5109024;27;20175;-77
2022/11/18 01:02:59;;;;;;;0.20;0.20;;;9.40;99.90;9.60;99273.00;;;;5110338;28;20189;-77
2022/11/18 01:05:36;;;;;;;0.43;0.43;;;9.30;99.90;9.60;99282.00;;;;5097525;27;20201;-79
2022/11/18 01:08:24;;;;;;;0.70;0.70;;;9.30;99.90;9.80;99283.00;;;;5100360;27;20235;-78
2022/11/18 01:13:18;;;;;;;0.93;0.87;;;9.40;99.90;9.70;99258.00;;;;5113185;27;20182;-78
2022/11/18 01:13:40;;;;;;;0.20;0.20;;;9.30;99.90;9.90;99278.00;;;;5097305;27;20255;-77
2022/11/18 01:16:26;;;;;;;0.20;0.20;;;9.40;99.90;9.70;99236.00;;;;5101829;28;20180;-77
2022/11/18 01:19:25;;;;;;;0.40;0.40;;;9.30;99.90;9.50;99294.00;;;;5132250;27;20185;-76
2022/11/18 01:22:06;;;;;;;0.20;0.20;;;9.30;99.90;9.70;99291.00;;;;5117017;27;20181;-77
2022/11/18 01:24:51;;;;;;;0.20;0.20;;;9.20;99.90;9.50;99252.00;;;;5099421;27;20261;-77
2022/11/18 01:27:35;;;;;;;0.40;0.40;;;9.20;99.90;9.60;99257.00;;;;5091908;27;20180;-76
2022/11/18 01:30:22;;;;;;;0.20;0.20;;;9.20;99.90;9.30;99309.00;;;;5116403;27;20180;-78
2022/11/18 01:33:13;;;;;;;0.20;0.20;;;9.10;99.90;9.50;99297.00;;;;5116296;27;20250;-77
2022/11/18 01:35:59;;;;;;;0.47;0.47;;;9.20;99.90;9.60;99275.00;;;;5102803;28;20210;-78
2022/11/18 01:38:48;;;;;;;0.20;0.20;;;9.20;99.90;9.60;99325.00;;;;5099520;27;20190;-78
2022/11/18 01:41:27;;;;;;;0.80;0.80;;;9.20;99.90;9.50;99324.00;;;;5099095;27;20226;-79
2022/11/18 01:45:03;;;;;;;0.23;0.23;;;9.10;99.90;9.40;99328.00;;;;5099506;27;20638;-78
2022/11/18 01:48:22;;;;;;;0.20;0.20;;;9.10;99.90;9.30;99327.00;;;;5129713;27;20658;-77
2022/11/18 01:51:00;;;;;;;0.20;0.20;;;9.10;99.90;9.30;99335.00;;;;5134300;27;20181;-77
2022/11/18 01:53:35;;;;;;;0.20;0.20;;;9.00;99.90;9.30;99288.00;;;;5099946;27;20187;-77
2022/11/18 01:56:07;;;;;;;0.20;0.20;;;9.00;99.90;9.40;99328.00;;;;5097002;27;20262;-77
2022/11/18 01:58:41;;;;;;;0.30;0.30;;;9.00;99.90;9.50;99330.00;;;;5099147;27;20192;-77
2022/11/18 02:01:20;;;;;;;3.57;0.47;;;9.00;99.90;9.10;99338.00;;;;5098420;27;20208;-77
2022/11/18 02:04:26;;;;;;;0.50;0.50;;;9.00;99.90;9.30;99341.00;;;;5115432;27;20915;-77
2022/11/18 02:06:53;;;;;;;0.27;0.27;;;9.00;99.90;9.40;99356.00;;;;4996945;28;20200;-78
2022/11/18 02:09:35;;;;;;;0.30;0.30;;;8.90;99.90;9.10;99312.00;;;;5014867;28;20256;-77
2022/11/18 02:12:28;;;;;;;0.20;0.20;;;8.90;99.90;9.30;99365.00;;;;5014205;28;20222;-77
2022/11/18 02:15:04;;;;;;;0.30;0.30;;;8.90;99.90;9.30;99343.00;;;;5034158;28;20341;-77
2022/11/18 02:19:05;;;;;;;0.30;0.30;;;8.90;99.90;9.40;99368.00;;;;5021649;28;20265;-77
2022/11/18 02:22:37;;;;;;;0.20;0.20;;;9.00;99.90;9.40;99375.00;;;;4989460;28;20287;-78
2022/11/18 02:26:05;;;;;;;0.63;0.63;;;8.90;99.90;9.40;99385.00;;;;4978346;28;20537;-77
2022/11/18 02:29:37;;;;;;;0.30;0.30;;;8.90;99.90;9.10;99388.00;;;;4991127;28;20185;-77
2022/11/18 02:32:52;;;;;;;0.20;0.20;;;8.80;99.90;9.10;99374.00;;;;4977585;28;20303;-77
2022/11/18 02:35:45;;;;;;;0.23;0.23;;;8.80;99.90;8.90;99379.00;;;;4996878;28;20204;-78
2022/11/18 02:38:26;;;;;;;0.20;0.20;;;8.70;99.90;9.20;99388.00;;;;5044529;28;20191;-80
2022/11/18 02:41:15;;;;;;;0.40;0.40;;;8.70;99.90;8.90;99393.00;;;;5046691;28;20182;-80
2022/11/18 02:43:50;;;;;;;0.20;0.20;;;8.70;99.90;8.90;99390.00;;;;5055417;28;20186;-78
2022/11/18 02:46:39;;;;;;;0.20;0.20;;;8.70;99.90;9.00;99376.00;;;;5092315;28;20658;-80
2022/11/18 02:49:36;;;;;;;0.20;0.20;;;8.70;99.90;9.10;99399.00;;;;5110693;28;20194;-80
2022/11/18 02:52:10;;;;;;;0.20;0.20;;;8.70;99.90;8.70;99397.00;;;;5115271;28;20203;-80
2022/11/18 02:54:40;;;;;;;0.20;0.20;;;8.70;99.90;9.10;99380.00;;;;5103449;28;20182;-80
2022/11/18 02:57:15;;;;;;;0.40;0.40;;;8.70;99.90;9.00;99402.00;;;;5088925;28;20225;-79
2022/11/18 03:00:55;;;;;;;0.50;0.50;;;8.60;99.90;8.70;99381.00;;;;5099006;28;20208;-78
2022/11/18 03:03:33;;;;;;;0.30;0.30;;;8.50;99.90;8.80;99410.00;;;;5064684;28;20900;-77
2022/11/18 03:06:28;;;;;;;0.23;0.23;;;8.60;99.90;9.00;99416.00;;;;5053640;28;20199;-77
2022/11/18 03:09:48;;;;;;;0.20;0.20;;;8.60;99.90;8.90;99418.00;;;;5107091;28;20213;-78
2022/11/18 03:13:04;;;;;;;0.20;0.20;;;8.60;99.90;8.80;99408.00;;;;5093201;28;20221;-80
2022/11/18 03:22:27;;;;;;;0.43;0.43;;;8.50;99.90;8.70;99459.00;;;;5134536;27;20199;-80
2022/11/18 03:25:44;;;;;;;0.30;0.30;;;8.50;99.90;8.90;99441.00;;;;5093644;27;20642;-77
2022/11/18 03:28:39;;;;;;;0.30;0.30;;;8.50;99.90;8.80;99444.00;;;;5093680;28;20202;-78
2022/11/18 03:31:52;;;;;;;0.20;0.20;;;8.50;99.90;8.80;99397.00;;;;5086747;28;20195;-79
2022/11/18 03:34:49;;;;;;;0.30;0.30;;;8.50;99.90;9.00;99447.00;;;;5100909;27;20206;-77
2022/11/18 03:37:40;;;;;;;0.30;0.30;;;8.50;99.90;8.70;99454.00;;;;5107293;27;20226;-77
2022/11/18 03:40:37;;;;;;;0.20;0.20;;;8.50;99.90;8.80;99396.00;;;;5118555;27;20195;-77
2022/11/18 03:44:27;;;;;;;0.20;0.20;;;8.40;99.90;8.70;99454.00;;;;5119278;27;20230;-76
2022/11/18 03:47:39;;;;;;;0.27;0.27;;;8.40;99.90;8.60;99458.00;;;;5043417;28;20210;-78
2022/11/18 03:50:25;;;;;;;0.30;0.30;;;8.40;99.90;8.70;99453.00;;;;5033390;28;20186;-77
2022/11/18 03:53:06;;;;;;;0.20;0.20;;;8.40;99.90;8.60;99424.00;;;;5097010;28;20265;-78
2022/11/18 03:55:53;;;;;;;0.20;0.20;;;8.40;99.90;8.70;99473.00;;;;5113211;27;20638;-79
2022/11/18 03:58:32;;;;;;;0.30;0.30;;;8.50;99.90;9.00;99478.00;;;;5101534;27;20204;-78
2022/11/18 04:01:32;;;;;;;0.20;0.20;;;8.50;99.90;8.60;99474.00;;;;5099503;27;20183;-78
2022/11/18 04:04:23;;;;;;;0.57;0.57;;;8.50;99.90;8.60;99471.00;;;;4996766;28;20635;-79
2022/11/18 04:07:24;;;;;;;0.20;0.20;;;8.50;99.90;8.70;99448.00;;;;4990577;28;20200;-79
2022/11/18 04:10:54;;;;;;;0.20;0.20;;;8.50;99.90;8.60;99496.00;;;;5033154;28;20198;-78
2022/11/18 04:14:54;;;;;;;6.53;4.13;;;8.40;99.90;8.80;99485.00;;;;5032344;28;20277;-78
2022/11/18 04:22:08;;;;;;;0.20;0.20;;;8.40;99.90;8.50;99490.00;;;;4979725;28;20193;-77
2022/11/18 04:25:08;;;;;;;0.20;0.20;;;8.40;99.90;8.60;99486.00;;;;4970971;28;20193;-77
2022/11/18 04:28:07;;;;;;;0.30;0.30;;;8.40;99.90;8.70;99496.00;;;;4965827;28;20773;-77
2022/11/18 04:31:03;;;;;;;0.20;0.20;;;8.40;99.90;8.70;99495.00;;;;4961061;28;20645;-77
2022/11/18 04:34:42;;;;;;;0.40;0.40;;;8.40;99.90;8.80;99510.00;;;;5014198;28;20221;-78
2022/11/18 04:37:52;;;;;;;0.43;0.43;;;8.40;99.90;8.50;99502.00;;;;5003576;28;20183;-78
2022/11/18 04:40:36;;;;;;;0.20;0.20;;;8.30;99.90;8.50;99501.00;;;;4989869;28;20204;-79
2022/11/18 04:43:05;;;;;;;0.47;0.43;;;8.30;99.90;8.50;99505.00;;;;5030949;28;20671;-78
2022/11/18 04:45:36;;;;;;;0.20;0.20;;;8.30;99.90;8.80;99516.00;;;;5106244;27;20698;-78
2022/11/18 04:48:02;;;;;;;0.30;0.30;;;8.30;99.90;8.90;99465.00;;;;5097023;28;20643;-77
2022/11/18 04:50:28;;;;;;;0.20;0.20;;;8.40;99.90;8.90;99505.00;;;;5116636;27;20180;-77
2022/11/18 04:53:12;;;;;;;0.20;0.20;;;8.50;99.90;8.50;99464.00;;;;5105760;27;20211;-78
2022/11/18 04:55:52;;;;;;;0.50;0.50;;;8.30;99.90;8.70;99509.00;;;;5105487;27;20180;-79
2022/11/18 04:58:28;;;;;;;0.43;0.43;;;8.30;99.90;8.70;99522.00;;;;5099823;27;20180;-79
2022/11/18 05:01:02;;;;;;;0.30;0.30;;;8.40;99.90;8.60;99530.00;;;;5135251;27;20197;-79
2022/11/18 05:03:37;;;;;;;0.20;0.20;;;8.30;99.90;8.60;99535.00;;;;5088110;27;20203;-77
2022/11/18 05:06:05;;;;;;;0.20;0.20;;;8.30;99.90;8.50;99530.00;;;;5134803;27;20268;-76
2022/11/18 05:08:46;;;;;;;0.40;0.40;;;8.30;99.90;8.80;99540.00;;;;5117081;27;20192;-76
2022/11/18 05:14:29;;;;;;;1.00;0.40;;;8.40;99.90;8.50;99549.00;;;;5116091;27;20706;-76
2022/11/18 05:17:18;;;;;;;0.20;0.20;;;8.30;99.90;8.60;99538.00;;;;5100001;27;20208;-77
2022/11/18 05:19:59;;;;;;;6.10;1.20;;;8.30;99.90;8.40;99550.00;;;;5104787;27;20183;-77
2022/11/18 05:22:55;;;;;;;0.20;0.20;;;8.30;99.90;8.40;99544.00;;;;5099376;27;20183;-77
2022/11/18 05:28:41;;;;;;;0.57;0.50;;;8.30;99.90;8.60;99564.00;;;;5101483;27;20195;-77
2022/11/18 05:31:51;;;;;;;0.30;0.30;;;8.30;99.90;8.60;99552.00;;;;5111830;27;20182;-77
2022/11/18 05:34:18;;;;;;;0.40;0.40;;;8.30;99.90;8.50;99554.00;;;;5060888;27;20224;-79
2022/11/18 05:36:58;;;;;;;8.47;0.80;;;8.30;99.90;8.60;99562.00;;;;5116103;27;20186;-78
2022/11/18 05:39:40;;;;;;;1.00;1.00;;;8.30;99.90;8.50;99510.00;;;;5108151;27;20184;-78
2022/11/18 05:45:11;;;;;;;0.30;0.30;;;8.30;99.90;8.70;99572.00;;;;5118868;27;20246;-78
2022/11/18 05:48:02;;;;;;;0.20;0.20;;;8.30;99.90;8.50;99569.00;;;;5115659;27;20197;-77
2022/11/18 05:50:34;;;;;;;0.20;0.20;;;8.30;99.90;8.50;99588.00;;;;5098472;27;20187;-78
2022/11/18 05:53:12;;;;;;;0.20;0.20;;;8.30;99.90;8.60;99586.00;;;;5103761;28;20252;-78
2022/11/18 05:56:23;;;;;;;0.20;0.20;;;8.30;99.90;8.70;99593.00;;;;5101825;27;20192;-77
2022/11/18 05:59:18;;;;;;;0.60;0.60;;;8.30;99.90;8.60;99557.00;;;;5087477;27;20678;-77
2022/11/18 06:02:22;;;;;;;0.30;0.30;;;8.40;99.90;8.60;99593.00;;;;5098190;27;20252;-77
2022/11/18 06:05:01;;;;;;;0.20;0.20;;;8.40;99.90;8.90;99608.00;;;;5099271;27;20176;-77
2022/11/18 06:10:36;;;;;;;3.30;0.87;;;8.50;99.90;8.80;99606.00;;;;5106320;27;20521;-76
2022/11/18 06:13:35;;;;;;;0.57;0.57;;;8.50;99.90;9.10;99608.00;;;;5114956;28;20209;-77
2022/11/18 06:16:06;;;;;;;1.37;0.53;;;8.70;99.90;9.00;99602.00;;;;5105789;27;20513;-80
2022/11/18 06:18:38;;;;;;;0.20;0.20;;;8.70;99.90;9.10;99611.00;;;;5115759;27;20182;-77
2022/11/18 06:21:12;;;;;;;1.03;0.93;;;8.70;99.90;9.00;99612.00;;;;5133546;27;20652;-78
2022/11/18 06:23:46;;;;;;;0.40;0.40;;;8.70;99.90;8.80;99610.00;;;;5112444;28;20242;-80
2022/11/18 06:26:32;;;;;;;1.13;1.13;;;8.70;99.90;9.00;99617.00;;;;5101656;27;20202;-77
2022/11/18 06:29:01;;;;;;;0.40;0.40;;;8.70;99.90;9.00;99610.00;;;;5100102;28;20182;-79
2022/11/18 06:31:34;;;;;;;0.30;0.30;;;8.70;99.90;9.10;99621.00;;;;5115890;28;20181;-78
2022/11/18 06:37:48;;;;;;;0.47;0.47;;;8.70;99.90;8.90;99636.00;;;;5118380;28;20200;-78
2022/11/18 06:40:21;;;;;;;0.20;0.20;;;8.60;99.90;8.70;99638.00;;;;5115858;28;20190;-79
2022/11/18 06:49:18;;;;;;;0.30;0.30;;;8.50;99.90;8.80;99632.00;;;;5107795;28;20750;-79
2022/11/18 06:52:32;;;;;;;0.50;0.50;;;8.50;99.90;8.60;99647.00;;;;5108002;28;20308;-78
2022/11/18 06:54:58;;;;;;;0.67;0.67;;;8.40;99.90;8.70;99643.00;;;;5108664;27;20195;-79
2022/11/18 06:57:27;;;;;;;0.73;0.73;;;8.40;99.90;8.70;99662.00;;;;5099647;28;20197;-79
2022/11/18 07:00:13;;;;;;;0.50;0.50;;;8.40;99.90;8.60;99605.00;;;;5112151;27;20259;-78
2022/11/18 07:02:39;;;;;;;0.60;0.60;;;8.40;99.90;8.60;99627.00;;;;5098623;28;20539;-79
2022/11/18 07:05:05;;;;;;;0.63;0.63;;;8.40;99.90;8.80;99668.00;;;;5117982;27;20191;-78
2022/11/18 07:08:12;;;;;;;0.33;0.30;;;8.50;99.90;8.80;99680.00;;;;5137037;27;20196;-79
2022/11/18 07:10:55;;;;;;;1.53;1.43;;;8.40;99.90;8.60;99667.00;;;;5081283;27;20197;-78
2022/11/18 07:13:21;;;;;;;0.40;0.40;;;8.40;99.90;8.60;99684.00;;;;5119048;27;20732;-78
2022/11/18 07:15:47;;;;;;;1.50;1.30;;;8.40;99.90;8.50;99689.00;;;;5137538;27;20180;-78
2022/11/18 07:18:13;;;;;;;0.50;0.50;;;8.40;99.90;8.80;99682.00;;;;5119140;27;20590;-79
2022/11/18 07:20:41;;;;;;;0.67;0.67;;;8.40;99.90;8.90;99688.00;;;;5137673;27;20267;-78
2022/11/18 07:23:19;;;;;;;0.20;0.20;;;8.50;99.90;8.90;99657.00;;;;5119145;27;20218;-78
2022/11/18 07:25:45;;;;;;;0.20;0.20;;;8.40;99.90;8.70;99696.00;;;;5128525;27;20217;-78
2022/11/18 07:28:13;;;;;;;0.30;0.30;;;8.50;99.90;8.80;99627.00;;;;5137446;27;20545;-72
2022/11/18 07:30:42;;;;;;;0.63;0.63;;;8.50;99.90;8.80;99698.00;;;;5122092;27;20215;-79
2022/11/18 07:33:14;;;;;;;0.30;0.30;;;8.50;99.90;9.10;99708.00;;;;5110856;27;20239;-77
2022/11/18 07:35:41;;;;;;;0.37;0.37;;;8.70;99.90;8.90;99673.00;;;;5115220;27;20261;-79
2022/11/18 07:38:09;;;;;;;0.20;0.20;;;8.60;99.90;9.10;99704.00;;;;5108962;28;20186;-79
2022/11/18 07:40:38;;;;;;;0.40;0.40;;;8.70;99.90;9.20;99649.00;;;;5109146;27;20210;-79
2022/11/18 07:43:03;;;;;;;0.20;0.20;;;8.80;99.90;9.20;99716.00;;;;5118691;27;20185;-79
2022/11/18 07:45:29;;;;;;;0.30;0.30;;;8.80;99.90;9.20;99693.00;;;;5101466;27;20181;-79
2022/11/18 07:47:55;;;;;;;0.40;0.40;;;8.80;99.90;9.10;99709.00;;;;5101163;27;20193;-79
2022/11/18 07:50:21;;;;;;;0.20;0.20;;;8.80;99.90;9.00;99705.00;;;;5118870;27;20181;-79
2022/11/18 07:52:48;;;;;;;0.27;0.27;;;8.80;99.90;9.30;99703.00;;;;5117403;27;20560;-78
2022/11/18 07:55:34;;;;;;;0.23;0.23;;;8.80;99.90;9.20;99721.00;;;;5111720;27;20183;-79
2022/11/18 07:58:03;;;;;;;0.30;0.30;;;8.80;99.90;8.90;99718.00;;;;5101540;27;20208;-78
2022/11/18 08:01:03;;;;;;;0.50;0.50;;;8.80;99.90;9.10;99732.00;;;;5107032;27;20188;-78
2022/11/18 08:03:44;;;;;;;0.87;0.87;;;8.80;99.90;9.00;99746.00;;;;5100211;27;20334;-78
2022/11/18 08:06:15;;;;;;;0.67;0.40;;;8.80;99.90;9.00;99748.00;;;;5089904;28;20185;-78
2022/11/18 08:08:41;;;;;;;0.20;0.20;;;8.80;99.90;9.20;99748.00;;;;5100409;27;20703;-78
2022/11/18 08:11:11;;;;;;;0.33;0.33;;;8.90;99.90;9.40;99746.00;;;;5136378;27;20635;-78
2022/11/18 08:13:37;;;;;;;0.50;0.50;;;9.00;99.90;9.50;99740.00;;;;5099606;27;20263;-78
2022/11/18 08:16:11;;;;;;;0.40;0.40;;;9.00;99.90;9.40;99738.00;;;;5101484;27;20652;-78
2022/11/18 08:18:37;;;;;;;0.30;0.30;;;9.00;99.90;9.20;99764.00;;;;5111292;28;20231;-78
2022/11/18 08:21:03;;;;;;;0.30;0.30;;;9.00;99.90;9.20;99746.00;;;;5106455;27;20712;-78
2022/11/18 08:23:31;;;;;;;0.20;0.20;;;8.90;99.90;9.20;99736.00;;;;5090722;27;20195;-78
2022/11/18 08:26:23;;;;;;;0.50;0.50;;;9.00;99.90;9.40;99767.00;;;;5115116;27;20189;-78
2022/11/18 08:28:50;;;;;;;0.97;0.63;;;9.10;99.90;9.20;99767.00;;;;5108700;27;20202;-78
2022/11/18 08:31:30;;;;;;;0.30;0.30;;;9.00;99.90;9.30;99762.00;;;;5113914;27;20242;-78
2022/11/18 08:34:27;;;;;;;0.20;0.20;;;9.10;99.90;9.20;99776.00;;;;5118400;27;20236;-78
2022/11/18 08:37:02;;;;;;;0.90;0.87;;;9.10;99.90;9.30;99771.00;;;;5098374;27;20201;-79
2022/11/18 08:39:50;;;;;;;0.30;0.30;;;9.10;99.90;9.60;99716.00;;;;5117903;27;20197;-79
2022/11/18 08:42:16;;;;;;;0.40;0.40;;;9.20;99.90;9.70;99788.00;;;;5119751;27;20194;-80
2022/11/18 08:45:07;;;;;;;0.87;0.60;;;9.30;99.90;9.60;99776.00;;;;5117344;27;20185;-84
2022/11/18 08:47:34;;;;;;;0.30;0.30;;;9.30;99.90;9.80;99782.00;;;;5097381;28;20198;-83
2022/11/18 08:50:20;;;;;;;0.20;0.20;;;9.40;99.90;9.80;99795.00;;;;5105076;28;20261;-83
2022/11/18 08:52:49;;;;;;;0.50;0.50;;;9.40;99.90;9.60;99780.00;;;;5110627;28;20228;-83
2022/11/18 08:55:17;;;;;;;0.83;0.73;;;9.40;99.90;9.90;99792.00;;;;5109411;27;20180;-82
2022/11/18 08:57:48;;;;;;;0.77;0.77;;;9.50;99.90;9.60;99696.00;;;;5116444;27;20283;-81
2022/11/18 09:00:17;;;;;;;0.30;0.30;;;9.50;99.90;9.60;99773.00;;;;5104171;28;20641;-83
2022/11/18 09:03:06;;;;;;;0.40;0.30;;;9.40;99.90;9.60;99801.00;;;;5115243;27;20661;-82
2022/11/18 09:05:52;;;;;;;0.20;0.20;;;9.40;99.90;9.80;99792.00;;;;5094610;27;20182;-82
2022/11/18 09:08:28;;;;;;;0.57;0.53;;;9.40;99.90;9.40;99800.00;;;;5084316;27;20190;-81
2022/11/18 09:11:16;;;;;;;0.20;0.20;;;9.40;99.90;9.80;99809.00;;;;5099588;27;20628;-83
2022/11/18 09:13:59;;;;;;;0.53;0.53;;;9.50;99.90;10.00;99812.00;;;;5116301;27;20187;-81
2022/11/18 09:16:45;;;;;;;0.23;0.23;;;9.60;99.90;9.90;99801.00;;;;5115391;27;20195;-81
2022/11/18 09:19:19;;;;;;;0.40;0.40;;;9.60;99.90;9.90;99805.00;;;;5101187;27;20202;-81
2022/11/18 09:22:11;;;;;;;0.87;0.87;;;9.60;99.90;9.50;99798.00;;;;5096232;28;20207;-81
2022/11/18 09:25:15;;;;;;;0.20;0.20;;;9.40;99.90;9.80;99767.00;;;;5110630;27;20187;-82
2022/11/18 09:28:22;;;;;;;2.67;1.43;;;9.50;99.90;9.80;99832.00;;;;5094336;27;20290;-81
2022/11/18 09:31:10;;;;;;;0.20;0.20;;;9.50;99.90;10.30;99736.00;;;;5104203;27;20183;-81
2022/11/18 09:34:02;;;;;;;0.77;0.70;;;9.70;99.90;9.70;99813.00;;;;5096259;27;20183;-81
2022/11/18 09:36:56;;;;;;;0.60;0.60;;;9.60;99.90;10.10;99770.00;;;;5097325;27;20186;-82
2022/11/18 09:39:39;;;;;;;0.40;0.40;;;9.70;99.90;9.80;99832.00;;;;5096779;28;20154;-81
2022/11/18 09:42:33;;;;;;;0.33;0.33;;;9.70;99.90;10.20;99823.00;;;;5097490;28;20242;-81
2022/11/18 09:45:38;;;;;;;2.57;0.77;;;9.80;99.90;9.90;99850.00;;;;5109168;28;20635;-81
2022/11/18 09:52:14;;;;;;;0.20;0.20;;;9.80;99.90;10.00;99839.00;;;;5115605;27;20608;-81
2022/11/18 09:55:00;;;;;;;1.50;0.63;;;9.70;99.90;9.80;99864.00;;;;5097912;27;20200;-81
2022/11/18 09:58:02;;;;;;;0.50;0.50;;;9.70;99.90;10.00;99857.00;;;;5115540;27;20199;-81
2022/11/18 10:00:43;;;;;;;0.53;0.53;;;9.70;99.90;9.70;99868.00;;;;5081707;27;20281;-82
2022/11/18 10:03:31;;;;;;;2.73;0.83;;;9.70;99.90;9.80;99852.00;;;;5097729;28;20558;-82
2022/11/18 10:06:08;;;;;;;0.30;0.30;;;9.70;99.90;10.10;99872.00;;;;5109821;27;20270;-82
2022/11/18 10:09:17;;;;;;;0.30;0.30;;;9.70;99.90;10.10;99865.00;;;;5112970;28;20653;-82
2022/11/18 10:12:27;;;;;;;0.90;0.90;;;9.80;99.90;10.20;99887.00;;;;5107076;27;20183;-84
2022/11/18 10:15:42;;;;;;;0.43;0.43;;;9.80;99.90;10.10;99890.00;;;;5115581;27;20268;-71
2022/11/18 10:18:32;;;;;;;0.40;0.40;;;9.80;99.90;9.90;99885.00;;;;5078433;27;20211;-71
2022/11/18 10:33:25;;;;;;;0.10;0.10;;;9.50;99.90;9.90;99940.00;;;;5110599;27;20618;-71
2022/11/18 10:36:29;;;;;;;0.30;0.30;;;9.70;99.90;10.80;99922.00;;;;5077953;28;20184;-71
2022/11/18 10:39:10;;;;;;;0.20;0.20;;;10.10;99.90;11.30;99935.00;;;;5072092;28;20188;-71
2022/11/18 10:41:51;;;;;;;0.20;0.20;;;10.40;99.90;11.20;99881.00;;;;5068163;28;20711;-71
2022/11/18 10:44:46;;;;;;;0.20;0.20;;;10.50;99.90;11.00;99895.00;;;;5088252;28;20659;-71
2022/11/18 10:47:27;;;;;;;0.20;0.20;;;10.30;99.90;10.90;99930.00;;;;5070530;28;20200;-71
2022/11/18 10:50:53;;;;;;;0.20;0.20;;;10.20;99.90;11.20;99922.00;;;;5071984;28;20192;-71
2022/11/18 10:53:36;;;;;;;0.47;0.47;;;10.30;99.90;11.10;99926.00;;;;5042966;28;20206;-73
2022/11/18 10:56:08;;;;;;;0.27;0.27;;;10.40;99.90;11.60;99923.00;;;;5070171;28;20287;-72
2022/11/18 10:58:40;;;;;;;0.30;0.30;;;10.70;99.90;11.30;99927.00;;;;5084261;28;20194;-72
2022/11/18 11:01:23;;;;;;;0.20;0.20;;;10.60;99.90;10.70;99927.00;;;;5089644;28;20281;-72
2022/11/18 11:04:26;;;;;;;0.23;0.23;;;10.40;99.90;11.10;99933.00;;;;5072040;28;20193;-71
2022/11/18 11:06:52;;;;;;;0.20;0.20;;;10.40;99.90;10.70;99928.00;;;;5065738;28;20207;-74
2022/11/18 11:09:37;;;;;;;0.30;0.30;;;10.30;99.90;10.60;99894.00;;;;5053662;28;20211;-69
2022/11/18 11:12:16;;;;;;;0.30;0.30;;;10.20;99.90;10.40;99946.00;;;;5067533;28;20721;-69
2022/11/18 11:14:53;;;;;;;0.30;0.30;;;10.20;99.90;10.20;99950.00;;;;5069225;28;20338;-70
2022/11/18 11:17:32;;;;;;;0.20;0.20;;;10.10;99.90;10.60;99950.00;;;;5069251;28;20216;-63
2022/11/18 11:20:21;;;;;;;0.30;0.30;;;10.10;99.90;10.80;99949.00;;;;5086916;28;20238;-70
2022/11/18 11:23:08;;;;;;;0.40;0.40;;;10.40;99.90;10.60;99949.00;;;;5068747;28;20189;-69
2022/11/18 11:26:01;;;;;;;0.50;0.50;;;10.20;99.90;10.90;99958.00;;;;5068939;28;20185;-68
2022/11/18 11:28:50;;;;;;;0.30;0.30;;;10.30;99.90;10.80;99951.00;;;;5069280;28;20274;-68
2022/11/18 11:31:56;;;;;;;0.20;0.20;;;10.30;99.90;10.40;99914.00;;;;5067586;28;20239;-71
2022/11/18 11:35:04;;;;;;;0.20;0.20;;;10.20;99.90;10.40;99961.00;;;;5064734;28;20193;-71
2022/11/18 11:37:59;;;;;;;0.20;0.20;;;10.10;99.90;10.50;99961.00;;;;5089045;28;20177;-70
2022/11/18 11:41:10;;;;;;;0.20;0.20;;;10.10;99.90;10.70;99962.00;;;;5071260;28;20187;-70
2022/11/18 11:44:11;;;;;;;0.60;0.60;;;10.30;99.90;10.90;99951.00;;;;5046895;28;20200;-71
2022/11/18 11:49:44;;;;;;;0.30;0.30;;;10.40;99.90;10.60;99968.00;;;;5068977;28;20660;-71
2022/11/18 11:52:22;;;;;;;0.50;0.50;;;10.30;99.90;10.60;99967.00;;;;5075334;28;20715;-71
2022/11/18 11:55:34;;;;;;;0.33;0.33;;;10.20;99.90;10.80;99962.00;;;;5057421;28;20188;-70
2022/11/18 11:58:32;;;;;;;0.27;0.27;;;10.20;99.90;11.10;99971.00;;;;5057364;28;20182;-70
2022/11/18 12:01:21;;;;;;;1.23;1.20;;;10.40;99.90;10.80;99946.00;;;;5074589;28;20935;-70
2022/11/18 12:04:14;;;;;;;0.30;0.30;;;10.30;99.90;10.40;99925.00;;;;5057648;28;20692;-69
2022/11/18 12:06:41;;;;;;;0.40;0.40;;;10.30;99.90;10.70;99976.00;;;;5053387;28;20213;-69
2022/11/18 12:09:31;;;;;;;12.83;2.20;;;10.30;99.90;10.30;99977.00;;;;5055091;28;20265;-69
2022/11/18 12:12:33;;;;;;;0.20;0.20;;;10.20;99.90;10.70;99976.00;;;;5055099;28;20206;-69
2022/11/18 12:15:35;;;;;;;0.40;0.40;;;10.30;99.90;10.80;99983.00;;;;5054043;28;20206;-69
2022/11/18 12:18:28;;;;;;;0.30;0.30;;;10.30;99.90;10.90;99937.00;;;;5060988;28;20181;-69
2022/11/18 12:21:01;;;;;;;0.20;0.20;;;10.50;99.90;11.00;99985.00;;;;5052918;28;20187;-69
2022/11/18 12:23:32;;;;;;;0.20;0.20;;;10.50;99.90;11.00;99955.00;;;;5039477;28;20699;-69
2022/11/18 12:26:08;;;;;;;2.53;2.17;;;10.60;99.90;11.00;99982.00;;;;5054226;28;20239;-68
2022/11/18 12:29:18;;;;;;;0.30;0.30;;;10.50;99.90;11.00;99990.00;;;;5047183;28;20194;-69
2022/11/18 12:32:01;;;;;;;0.40;0.40;;;10.50;99.90;11.20;99983.00;;;;5047867;28;20249;-68
2022/11/18 12:34:56;;;;;;;0.20;0.20;;;10.70;99.90;11.20;99997.00;;;;5056754;28;20183;-68
2022/11/18 12:37:28;;;;;;;0.40;0.40;;;10.60;99.90;11.20;99998.00;;;;5074304;28;20186;-68
2022/11/18 12:39:58;;;;;;;0.40;0.40;;;10.70;99.90;10.80;100002.00;;;;5055139;28;20240;-68
2022/11/18 12:45:42;;;;;;;0.30;0.30;;;10.60;99.90;10.90;99960.00;;;;5053814;28;20193;-68
2022/11/18 12:48:25;;;;;;;1.70;0.87;;;10.60;99.90;10.90;100001.00;;;;5073906;28;20173;-68
2022/11/18 12:51:13;;;;;;;0.33;0.33;;;10.60;99.90;10.60;99997.00;;;;5074304;28;20265;-68
2022/11/18 12:53:43;;;;;;;0.20;0.20;;;10.40;99.90;10.60;99992.00;;;;5074422;28;20286;-68
2022/11/18 12:56:27;;;;;;;0.50;0.50;;;10.30;99.90;10.70;100002.00;;;;5062121;28;20193;-69
2022/11/18 12:58:59;;;;;;;0.40;0.40;;;10.40;99.90;10.70;99999.00;;;;5053200;28;20549;-69
2022/11/18 13:01:28;;;;;;;0.20;0.20;;;10.40;99.90;10.60;100007.00;;;;5037824;28;20211;-70
2022/11/18 13:04:15;;;;;;;0.20;0.20;;;10.20;99.90;10.90;100015.00;;;;5040734;28;20201;-70
2022/11/18 13:06:42;;;;;;;1.07;1.07;;;10.30;99.90;10.60;99962.00;;;;5051256;28;20226;-72
2022/11/18 13:09:20;;;;;;;0.30;0.30;;;10.30;99.90;10.60;99971.00;;;;5066064;28;20269;-72
2022/11/18 13:11:55;;;;;;;0.60;0.60;;;10.20;99.90;10.80;99997.00;;;;5049867;28;20224;-72
2022/11/18 13:17:50;;;;;;;0.83;0.83;;;10.40;99.90;10.90;100022.00;;;;5040444;28;20598;-72
2022/11/18 13:20:36;;;;;;;0.70;0.70;;;10.30;99.90;11.20;100013.00;;;;5046336;28;20188;-72
2022/11/18 13:25:55;;;;;;;0.60;0.60;;;10.40;99.90;11.00;100018.00;;;;5067938;28;20217;-72
2022/11/18 13:28:56;;;;;;;0.70;0.70;;;10.40;99.90;10.90;99988.00;;;;5039384;28;20191;-72
2022/11/18 13:31:47;;;;;;;1.27;0.87;;;10.40;99.90;10.80;100022.00;;;;5067117;28;20234;-72
2022/11/18 13:34:24;;;;;;;0.60;0.60;;;10.30;99.90;11.00;100020.00;;;;5073385;28;20218;-71